createdAt,value
2023-05-04T00:01:51.569Z,102477.03
2023-05-04T00:06:54.537Z,102485.75
2023-05-04T00:11:57.704Z,102479.41
2023-05-04T00:17:03.122Z,102478.69
2023-05-04T00:22:06.346Z,102480.41
2023-05-04T00:27:10.292Z,102481.19
2023-05-04T00:32:14.431Z,102472.59
2023-05-04T00:37:17.680Z,102461.03
2023-05-04T00:42:20.496Z,102466.19
2023-05-04T00:47:25.224Z,102464.63
2023-05-04T00:52:28.851Z,102466.31
2023-05-04T00:57:31.892Z,102456.69
2023-05-04T01:02:36.431Z,102445.38
2023-05-04T01:07:42.957Z,102443.53
2023-05-04T01:12:49.178Z,102446.31
2023-05-04T01:17:53.350Z,102434.00
2023-05-04T01:22:57.516Z,102425.38
2023-05-04T01:28:05.189Z,102422.59
2023-05-04T01:33:08.236Z,102424.44
2023-05-04T01:38:14.784Z,102411.41
2023-05-04T01:43:17.586Z,102414.88
2023-05-04T01:48:20.437Z,102414.75
2023-05-04T01:53:24.725Z,102407.81
2023-05-04T01:58:27.597Z,102408.78
2023-05-04T02:03:31.445Z,102401.63
2023-05-04T02:08:35.757Z,102392.94
2023-05-04T02:13:38.558Z,102397.38
2023-05-04T02:18:41.804Z,102392.09
2023-05-04T02:23:46.132Z,102392.19
2023-05-04T02:28:49.018Z,102385.94
2023-05-04T02:33:52.184Z,102372.13
2023-05-04T02:38:56.407Z,102367.59
2023-05-04T02:43:59.211Z,102360.78
2023-05-04T02:49:02.265Z,102353.81
2023-05-04T02:54:06.667Z,102354.69
2023-05-04T02:59:09.638Z,102355.69
2023-05-04T03:04:12.456Z,102345.34
2023-05-04T03:09:16.829Z,102346.03
2023-05-04T03:14:19.658Z,102346.91
2023-05-04T03:19:22.564Z,102341.81
2023-05-04T03:24:27.015Z,102337.38
2023-05-04T03:29:30.007Z,102337.34
2023-05-04T03:34:33.920Z,102336.59
2023-05-04T03:39:41.835Z,102329.66
2023-05-04T03:44:45.296Z,102329.66
2023-05-04T03:49:48.681Z,102324.34
2023-05-04T03:54:52.982Z,102308.69
2023-05-04T03:59:57.826Z,102311.38
2023-05-04T04:05:01.859Z,102308.91
2023-05-04T04:10:07.801Z,102297.66
2023-05-04T04:15:11.787Z,102301.22
2023-05-04T04:20:14.663Z,102291.66
2023-05-04T04:25:19.051Z,102297.59
2023-05-04T04:30:21.996Z,102283.69
2023-05-04T04:35:24.861Z,102284.63
2023-05-04T04:40:29.092Z,102283.78
2023-05-04T04:45:33.695Z,102283.78
2023-05-04T04:50:39.574Z,102280.28
2023-05-04T04:55:43.876Z,102279.44
2023-05-04T05:00:47.536Z,102270.78
2023-05-04T05:05:50.596Z,102273.47
2023-05-04T05:10:54.826Z,102276.06
2023-05-04T05:15:57.759Z,102266.56
2023-05-04T05:21:00.816Z,102271.78
2023-05-04T05:26:05.079Z,102270.06
2023-05-04T05:31:08.117Z,102272.69
2023-05-04T05:36:11.123Z,102265.72
2023-05-04T05:41:16.106Z,102264.00
2023-05-04T05:46:19.375Z,102261.41
2023-05-04T05:51:22.231Z,102263.13
2023-05-04T05:56:26.478Z,102263.13
2023-05-04T06:01:29.375Z,102257.06
2023-05-04T06:06:32.227Z,102249.22
2023-05-04T06:11:36.447Z,102256.19
2023-05-04T06:16:39.610Z,102248.38
2023-05-04T06:21:42.528Z,102244.00
2023-05-04T06:26:46.757Z,102237.88
2023-05-04T06:31:49.658Z,102242.25
2023-05-04T06:36:52.514Z,102231.78
2023-05-04T06:41:57.119Z,102220.41
2023-05-04T06:47:01.955Z,102225.47
2023-05-04T06:52:05.305Z,102220.63
2023-05-04T06:57:09.401Z,102212.41
2023-05-04T07:02:12.183Z,102201.13
2023-05-04T07:07:15.157Z,102197.31
2023-05-04T07:12:19.644Z,102187.38
2023-05-04T07:17:25.314Z,102187.53
2023-05-04T07:22:28.519Z,102189.69
2023-05-04T07:27:34.629Z,102172.81
2023-05-04T07:32:37.419Z,102176.16
2023-05-04T07:37:40.321Z,102165.28
2023-05-04T07:42:44.524Z,102158.78
2023-05-04T07:47:47.435Z,102164.16
2023-05-04T07:52:50.697Z,102158.28
2023-05-04T07:57:54.879Z,102155.97
2023-05-04T08:02:58.241Z,102137.91
2023-05-04T08:08:01.084Z,102144.53
2023-05-04T08:13:05.370Z,102139.66
2023-05-04T08:18:08.367Z,102139.03
2023-05-04T08:23:11.385Z,102132.78
2023-05-04T08:28:15.597Z,102119.41
2023-05-04T08:33:18.476Z,102106.19
2023-05-04T08:38:21.390Z,102110.03
2023-05-04T08:43:25.722Z,102106.25
2023-05-04T08:48:28.657Z,102105.72
2023-05-04T08:53:32.529Z,102104.25
2023-05-04T08:58:38.066Z,102088.53
2023-05-04T09:03:41.397Z,102087.56
2023-05-04T09:08:44.556Z,102086.47
2023-05-04T09:13:48.813Z,102085.47
2023-05-04T09:18:51.746Z,102086.09
2023-05-04T09:23:54.608Z,102077.38
2023-05-04T09:29:10.879Z,102064.63
2023-05-04T09:34:15.102Z,102063.00
2023-05-04T09:39:17.959Z,102065.75
2023-05-04T09:44:23.396Z,102055.03
2023-05-04T09:49:33.006Z,102055.53
2023-05-04T09:54:38.791Z,102059.91
2023-05-04T09:59:43.496Z,102043.31
2023-05-04T10:04:46.696Z,102050.06
2023-05-04T10:09:49.875Z,102047.72
2023-05-04T10:14:54.248Z,102029.19
2023-05-04T10:20:09.506Z,102020.25
2023-05-04T10:25:31.953Z,102010.56
2023-05-04T10:30:36.206Z,101998.44
2023-05-04T10:35:39.249Z,101988.81
2023-05-04T10:40:42.477Z,101993.72
2023-05-04T10:45:46.772Z,101978.19
2023-05-04T10:50:50.894Z,101971.50
2023-05-04T10:55:53.805Z,101965.28
2023-05-04T11:00:58.051Z,101948.38
2023-05-04T11:06:00.945Z,101947.69
2023-05-04T11:11:06.692Z,101940.03
2023-05-04T11:16:12.560Z,101927.16
2023-05-04T11:21:24.912Z,101917.47
2023-05-04T11:26:28.422Z,101906.28
2023-05-04T11:31:32.716Z,101883.06
2023-05-04T11:36:38.355Z,101889.53
2023-05-04T11:41:41.338Z,101873.03
2023-05-04T11:46:45.666Z,101865.66
2023-05-04T11:51:48.847Z,101858.50
2023-05-04T11:56:51.668Z,101857.66
2023-05-04T12:01:57.046Z,101842.75
2023-05-04T12:07:01.775Z,101846.06
2023-05-04T12:12:05.122Z,101840.91
2023-05-04T12:17:09.258Z,101846.66
2023-05-04T12:22:12.790Z,101829.28
2023-05-04T12:27:16.621Z,101821.03
2023-05-04T12:32:21.414Z,101806.47
2023-05-04T12:37:25.134Z,101806.34
2023-05-04T12:42:28.051Z,101795.75
2023-05-04T12:47:32.182Z,101782.41
2023-05-04T12:52:35.058Z,101769.59
2023-05-04T12:57:37.923Z,101763.44
2023-05-04T13:02:42.328Z,101766.47
2023-05-04T13:07:45.403Z,101749.63
2023-05-04T13:12:49.036Z,101744.72
2023-05-04T13:17:53.855Z,101746.44
2023-05-04T13:22:58.299Z,101731.91
2023-05-04T13:28:01.546Z,101714.28
2023-05-04T13:33:13.433Z,101701.69
2023-05-04T13:38:24.478Z,101693.97
2023-05-04T13:43:27.340Z,101684.13
2023-05-04T13:48:32.902Z,101682.22
2023-05-04T13:53:35.689Z,101671.94
2023-05-04T13:58:38.728Z,101663.03
2023-05-04T14:03:43.054Z,101647.69
2023-05-04T14:08:45.936Z,101639.31
2023-05-04T14:13:48.759Z,101630.25
2023-05-04T14:18:52.880Z,101621.81
2023-05-04T14:23:55.891Z,101607.34
2023-05-04T14:28:58.694Z,101605.72
2023-05-04T14:34:03.270Z,101602.41
2023-05-04T14:39:06.173Z,101598.34
2023-05-04T14:44:08.995Z,101596.84
2023-05-04T14:49:21.489Z,101581.72
2023-05-04T14:54:31.909Z,101580.72
2023-05-04T14:59:34.701Z,101568.47
2023-05-04T15:04:38.938Z,101563.53
2023-05-04T15:09:41.745Z,101558.22
2023-05-04T15:14:44.797Z,101557.09
2023-05-04T15:19:49.040Z,101548.44
2023-05-04T15:24:53.650Z,101545.28
2023-05-04T15:29:56.438Z,101541.78
2023-05-04T15:35:05.133Z,101537.69
2023-05-04T15:40:10.500Z,101544.97
2023-05-04T15:45:13.691Z,101539.69
2023-05-04T15:50:17.990Z,101532.63
2023-05-04T15:55:25.933Z,101531.41
2023-05-04T16:00:29.691Z,101520.22
2023-05-04T16:05:33.933Z,101515.13
2023-05-04T16:10:37.288Z,101505.69
2023-05-04T16:15:40.526Z,101500.72
2023-05-04T16:20:44.845Z,101487.91
2023-05-04T16:25:49.470Z,101487.66
2023-05-04T16:30:52.693Z,101483.00
2023-05-04T16:35:57.440Z,101478.84
2023-05-04T16:41:00.273Z,101476.69
2023-05-04T16:46:04.382Z,101466.94
2023-05-04T16:51:09.058Z,101467.00
2023-05-04T16:56:18.129Z,101464.63
2023-05-04T17:01:21.059Z,101455.91
2023-05-04T17:06:25.874Z,101456.69
2023-05-04T17:11:28.766Z,101456.75
2023-05-04T17:16:31.632Z,101456.56
2023-05-04T17:21:37.555Z,101457.38
2023-05-04T17:26:40.521Z,101456.16
2023-05-04T17:31:43.711Z,101449.78
2023-05-04T17:36:48.222Z,101456.88
2023-05-04T17:41:51.467Z,101462.66
2023-05-04T17:46:54.413Z,101463.94
2023-05-04T17:51:59.649Z,101463.91
2023-05-04T17:57:02.726Z,101475.31
2023-05-04T18:02:06.046Z,101458.75
2023-05-04T18:07:10.727Z,101477.16
2023-05-04T18:12:13.816Z,101472.72
2023-05-04T18:17:16.790Z,101477.00
2023-05-04T18:22:21.031Z,101478.41
2023-05-04T18:27:23.973Z,101477.28
2023-05-04T18:32:27.408Z,101477.72
2023-05-04T18:37:32.215Z,101486.53
2023-05-04T18:42:35.401Z,101489.38
2023-05-04T18:47:38.680Z,101489.22
2023-05-04T18:52:43.169Z,101495.84
2023-05-04T18:57:46.486Z,101500.81
2023-05-04T19:02:49.295Z,101493.47
2023-05-04T19:07:53.645Z,101493.22
2023-05-04T19:12:56.594Z,101498.50
2023-05-04T19:17:59.724Z,101507.38
2023-05-04T19:23:04.107Z,101500.31
2023-05-04T19:28:08.973Z,101498.53
2023-05-04T19:33:11.883Z,101502.91
2023-05-04T19:38:16.099Z,101496.03
2023-05-04T19:43:19.066Z,101498.00
2023-05-04T19:48:21.994Z,101502.31
2023-05-04T19:53:26.168Z,101498.53
2023-05-04T19:58:30.900Z,101489.03
2023-05-04T20:03:33.800Z,101484.91
2023-05-04T20:08:37.891Z,101487.13
2023-05-04T20:13:40.852Z,101487.06
2023-05-04T20:18:43.676Z,101492.22
2023-05-04T20:23:47.778Z,101481.19
2023-05-04T20:28:50.555Z,101480.09
2023-05-04T20:33:53.390Z,101480.63
2023-05-04T20:38:57.749Z,101478.84
2023-05-04T20:44:00.797Z,101475.88
2023-05-04T20:49:03.613Z,101474.09
2023-05-04T20:54:07.779Z,101470.72
2023-05-04T20:59:10.607Z,101467.22
2023-05-04T21:04:14.800Z,101460.53
2023-05-04T21:09:18.944Z,101461.41
2023-05-04T21:14:21.750Z,101463.19
2023-05-04T21:19:24.644Z,101454.91
2023-05-04T21:24:29.990Z,101447.19
2023-05-04T21:29:32.813Z,101442.75
2023-05-04T21:34:35.617Z,101428.31
2023-05-04T21:39:39.803Z,101423.47
2023-05-04T21:44:42.840Z,101426.06
2023-05-04T21:49:45.620Z,101415.44
2023-05-04T21:54:50.147Z,101414.91
2023-05-04T21:59:52.946Z,101418.34
2023-05-04T22:04:55.700Z,101420.59
2023-05-04T22:09:59.782Z,101410.22
2023-05-04T22:15:02.618Z,101407.59
2023-05-04T22:20:06.396Z,101406.19
2023-05-04T22:25:11.055Z,101403.69
2023-05-04T22:30:14.717Z,101394.47
2023-05-04T22:35:18.049Z,101392.56
2023-05-04T22:40:22.528Z,101393.09
2023-05-04T22:45:25.412Z,101387.00
2023-05-04T22:50:28.770Z,101384.00
2023-05-04T22:55:33.002Z,101394.28
2023-05-04T23:00:36.582Z,101386.75
2023-05-04T23:05:39.431Z,101385.84
2023-05-04T23:10:46.720Z,101394.03
2023-05-04T23:15:49.565Z,101408.72
2023-05-04T23:20:52.545Z,101396.63
2023-05-04T23:25:57.066Z,101404.81
2023-05-04T23:30:59.854Z,101402.69
2023-05-04T23:36:02.699Z,101398.63
2023-05-04T23:41:06.967Z,101407.84
2023-05-04T23:46:09.857Z,101426.94
2023-05-04T23:51:12.831Z,101425.88
2023-05-04T23:56:17.510Z,101423.34
